Time;durP1;ratioP1;P1;durP2;ratioP2;P2;SDS_P1;SDS_P2;PMS_P1;PMS_P2;Temp;Humidity;BMP_temperature;BMP_pressure;BME280_temperature;BME280_humidity;BME280_pressure;Samples;Min_cycle;Max_cycle;Signal;HPM_P1;HPM_P2
2023/01/03 00:00:48;;;;;;;9.15;1.85;;;5.60;99.90;;;;;;5033446;28;20042;-77
2023/01/03 00:03:16;;;;;;;7.60;1.75;;;5.20;99.90;;;;;;5010372;28;20030;-77
2023/01/03 00:05:43;;;;;;;9.77;1.52;;;5.50;99.90;;;;;;5024523;28;20503;-77
2023/01/03 00:08:09;;;;;;;5.65;1.60;;;5.90;99.90;;;;;;5006343;28;20029;-77
2023/01/03 00:10:35;;;;;;;6.50;1.48;;;5.90;99.90;;;;;;5037326;28;20120;-77
2023/01/03 00:13:00;;;;;;;6.70;2.00;;;5.40;99.90;;;;;;5033977;28;20045;-77
2023/01/03 00:15:26;;;;;;;9.93;3.28;;;5.70;99.90;;;;;;5015608;28;20064;-77
2023/01/03 00:17:52;;;;;;;7.05;1.67;;;5.60;99.90;;;;;;4999056;28;20037;-77
2023/01/03 00:20:19;;;;;;;7.75;1.60;;;;;;;;;;5013222;28;20041;-77
2023/01/03 00:22:44;;;;;;;6.30;1.80;;;5.60;99.90;;;;;;5011419;28;20564;-77
2023/01/03 00:25:10;;;;;;;5.07;1.70;;;5.20;99.90;;;;;;5020105;28;20038;-77
2023/01/03 00:27:36;;;;;;;6.30;1.38;;;5.60;99.90;;;;;;5004416;28;20056;-77
2023/01/03 00:30:01;;;;;;;10.07;1.90;;;5.90;99.90;;;;;;4999734;28;20037;-76
2023/01/03 00:32:27;;;;;;;5.35;1.70;;;5.70;99.90;;;;;;5012258;28;20056;-77
2023/01/03 00:34:53;;;;;;;7.15;1.90;;;5.80;99.90;;;;;;4998873;28;20068;-76
2023/01/03 00:37:18;;;;;;;9.93;1.60;;;5.80;99.90;;;;;;5008137;28;20055;-76
2023/01/03 00:39:44;;;;;;;8.05;1.70;;;5.90;99.90;;;;;;5006096;28;20045;-76
2023/01/03 00:42:09;;;;;;;6.07;2.10;;;5.60;99.90;;;;;;5033037;28;20041;-76
2023/01/03 00:44:35;;;;;;;7.45;1.60;;;5.90;99.90;;;;;;4999278;28;20037;-76
2023/01/03 00:47:01;;;;;;;9.82;1.58;;;5.50;99.90;;;;;;5032955;28;20041;-77
2023/01/03 00:49:27;;;;;;;6.13;1.83;;;5.50;99.90;;;;;;5009421;28;20033;-76
2023/01/03 00:51:53;;;;;;;7.25;1.98;;;;;;;;;;5007429;28;20042;-77
2023/01/03 00:54:20;;;;;;;9.43;1.95;;;;;;;;;;5014387;28;20061;-76
2023/01/03 00:56:47;;;;;;;8.68;1.80;;;5.70;99.90;;;;;;5032737;28;20041;-76
2023/01/03 00:59:13;;;;;;;8.57;1.80;;;;;;;;;;4998475;28;20040;-77
2023/01/03 01:01:44;;;;;;;8.23;1.60;;;;;;;;;;5015028;28;20260;-76
2023/01/03 01:04:16;;;;;;;8.88;2.20;;;5.30;99.90;;;;;;4998754;28;20048;-76
2023/01/03 01:06:45;;;;;;;8.45;2.03;;;5.20;99.90;;;;;;4983150;28;20048;-76
2023/01/03 01:09:14;;;;;;;6.28;1.83;;;5.80;99.90;;;;;;5025731;28;20037;-77
2023/01/03 01:11:40;;;;;;;5.43;2.45;;;;;;;;;;5001003;28;20042;-77
2023/01/03 01:14:18;;;;;;;7.18;1.80;;;5.00;99.90;;;;;;5015507;28;20499;-77
2023/01/03 01:16:45;;;;;;;10.82;2.30;;;;;;;;;;4997674;28;20073;-77
2023/01/03 01:19:10;;;;;;;7.90;1.92;;;5.00;99.90;;;;;;5012343;28;20100;-77
2023/01/03 01:21:36;;;;;;;10.15;2.13;;;5.50;99.90;;;;;;5025205;28;20049;-77
2023/01/03 01:24:02;;;;;;;6.10;1.65;;;5.40;99.90;;;;;;4994502;28;20029;-77
2023/01/03 01:26:27;;;;;;;15.60;3.05;;;5.90;99.90;;;;;;5014143;28;20091;-77
2023/01/03 01:28:54;;;;;;;8.65;2.00;;;;;;;;;;5002992;28;20507;-77
2023/01/03 01:31:22;;;;;;;7.60;1.63;;;5.30;99.90;;;;;;5000915;28;20158;-76
2023/01/03 01:33:48;;;;;;;7.15;1.50;;;5.40;99.90;;;;;;5007884;28;20183;-76
2023/01/03 01:36:16;;;;;;;6.45;1.35;;;;;;;;;;5012728;28;20076;-76
2023/01/03 01:38:42;;;;;;;6.53;1.55;;;;;;;;;;5012912;28;20060;-76
2023/01/03 01:41:15;;;;;;;4.97;1.20;;;5.00;99.90;;;;;;5015654;28;20522;-76
2023/01/03 01:46:40;;;;;;;7.38;1.92;;;;;;;;;;5011299;28;20510;-77
2023/01/03 01:49:12;;;;;;;5.70;1.58;;;5.40;99.90;;;;;;5007740;28;20088;-77
2023/01/03 01:51:38;;;;;;;10.07;1.70;;;5.00;99.90;;;;;;5003375;28;20038;-77
2023/01/03 01:54:05;;;;;;;6.22;1.20;;;5.00;99.90;;;;;;4994365;28;20087;-76
2023/01/03 01:56:45;;;;;;;5.55;1.45;;;4.60;99.90;;;;;;5012405;28;20044;-76
2023/01/03 01:59:11;;;;;;;6.15;1.50;;;4.80;99.90;;;;;;5005035;28;20122;-77
2023/01/03 02:01:38;;;;;;;7.35;1.52;;;5.10;99.90;;;;;;5003865;28;20048;-77
2023/01/03 02:04:22;;;;;;;5.68;1.15;;;4.60;99.90;;;;;;5014036;28;20112;-76
2023/01/03 02:06:48;;;;;;;4.75;1.23;;;4.70;99.90;;;;;;5006318;28;21467;-77
2023/01/03 02:09:14;;;;;;;4.63;1.08;;;4.70;99.90;;;;;;5014743;28;20117;-77
2023/01/03 02:15:00;;;;;;;6.43;1.27;;;4.60;99.90;;;;;;5028590;28;20045;-77
2023/01/03 02:17:37;;;;;;;4.97;1.40;;;4.00;99.90;;;;;;5011349;28;20119;-77
2023/01/03 02:20:19;;;;;;;6.07;2.08;;;;;;;;;;4997781;28;20662;-77
2023/01/03 02:22:54;;;;;;;6.93;2.03;;;;;;;;;;5023091;28;20037;-77
2023/01/03 02:25:32;;;;;;;7.45;2.28;;;;;;;;;;5020921;28;20425;-77
2023/01/03 02:28:13;;;;;;;6.38;2.00;;;4.30;99.90;;;;;;5001849;28;20091;-77
2023/01/03 02:30:50;;;;;;;9.02;2.63;;;4.10;99.90;;;;;;4997687;28;20043;-77
2023/01/03 02:33:32;;;;;;;9.05;2.58;;;;;;;;;;5035326;28;20052;-77
2023/01/03 02:36:19;;;;;;;7.30;2.42;;;;;;;;;;4986669;28;20471;-77
2023/01/03 02:38:50;;;;;;;5.28;2.00;;;;;;;;;;5025071;28;20107;-77
2023/01/03 02:41:22;;;;;;;14.10;2.70;;;;;;;;;;5009863;28;20042;-77
2023/01/03 02:43:51;;;;;;;9.65;2.58;;;;;;;;;;5030935;28;20042;-77
2023/01/03 02:46:23;;;;;;;7.28;2.20;;;;;;;;;;5017288;28;20033;-77
2023/01/03 02:49:02;;;;;;;7.28;2.63;;;3.70;99.90;;;;;;5016227;28;20030;-77
2023/01/03 02:51:28;;;;;;;5.70;2.20;;;;;;;;;;5022321;28;20045;-77
2023/01/03 02:53:54;;;;;;;34.05;3.60;;;3.10;99.90;;;;;;5024298;28;20503;-77
2023/01/03 02:56:34;;;;;;;8.70;2.80;;;;;;;;;;5016991;28;20045;-77
2023/01/03 02:59:02;;;;;;;5.90;2.30;;;;;;;;;;5012332;28;20038;-77
2023/01/03 03:01:29;;;;;;;8.32;2.60;;;3.00;99.90;;;;;;5011446;28;20126;-77
2023/01/03 03:03:57;;;;;;;8.05;2.88;;;3.00;99.90;;;;;;5020437;28;20487;-77
2023/01/03 03:06:26;;;;;;;8.63;2.95;;;;;;;;;;5008493;28;20061;-77
2023/01/03 03:08:51;;;;;;;7.40;3.00;;;3.00;99.90;;;;;;5002173;28;20045;-77
2023/01/03 03:14:13;;;;;;;5.97;2.47;;;;;;;;;;5014819;28;20041;-77
2023/01/03 03:16:47;;;;;;;7.07;2.70;;;;;;;;;;5018304;28;20045;-77
2023/01/03 03:25:30;;;;;;;12.10;3.03;;;3.10;99.90;;;;;;5011075;28;20171;-77
2023/01/03 03:30:44;;;;;;;10.57;2.78;;;;;;;;;;5027233;28;20073;-77
2023/01/03 03:33:12;;;;;;;8.75;2.60;;;3.00;99.90;;;;;;5017710;28;20041;-77
2023/01/03 03:35:45;;;;;;;12.27;3.17;;;;;;;;;;5001148;28;20034;-77
2023/01/03 03:38:13;;;;;;;7.15;2.75;;;;;;;;;;5020422;28;20515;-77
2023/01/03 03:46:26;;;;;;;7.65;3.42;;;;;;;;;;5028413;28;20077;-77
2023/01/03 03:51:51;;;;;;;8.00;3.40;;;;;;;;;;5031372;28;20046;-77
2023/01/03 03:54:20;;;;;;;8.10;2.97;;;3.10;99.90;;;;;;5012477;28;20510;-77
2023/01/03 03:56:52;;;;;;;6.82;2.63;;;3.50;99.90;;;;;;5032581;28;20041;-77
2023/01/03 03:59:21;;;;;;;8.45;2.67;;;3.90;99.90;;;;;;5023021;28;20082;-77
2023/01/03 04:01:48;;;;;;;8.18;3.33;;;3.80;99.90;;;;;;5025951;28;20056;-77
2023/01/03 04:04:23;;;;;;;10.90;3.38;;;;;;;;;;5017426;28;20509;-77
2023/01/03 04:06:50;;;;;;;7.57;3.15;;;;;;;;;;5005653;28;20045;-78
2023/01/03 04:09:17;;;;;;;11.10;3.72;;;;;;;;;;5010825;28;20503;-77
2023/01/03 04:11:45;;;;;;;9.32;3.60;;;;;;;;;;5011686;28;20060;-77
2023/01/03 04:14:11;;;;;;;11.63;3.42;;;;;;;;;;5020049;28;20041;-77
2023/01/03 04:16:36;;;;;;;8.68;3.58;;;3.40;99.90;;;;;;5036738;28;20033;-77
2023/01/03 04:19:03;;;;;;;8.68;3.28;;;;;;;;;;5031976;28;20026;-77
2023/01/03 04:21:29;;;;;;;8.07;3.22;;;3.20;99.90;;;;;;5027859;28;20086;-77
2023/01/03 04:23:54;;;;;;;9.80;3.60;;;2.80;99.90;;;;;;5026666;28;20037;-77
2023/01/03 04:26:20;;;;;;;6.97;3.50;;;3.10;99.90;;;;;;5021318;28;20522;-77
2023/01/03 04:28:46;;;;;;;8.68;3.42;;;3.10;99.90;;;;;;4998148;28;20037;-77
2023/01/03 04:31:11;;;;;;;9.23;3.25;;;2.90;99.90;;;;;;5007862;28;20029;-77
2023/01/03 04:33:37;;;;;;;8.10;3.28;;;3.10;99.90;;;;;;5007897;28;20180;-77
2023/01/03 04:36:03;;;;;;;6.93;3.33;;;;;;;;;;4995144;28;20414;-77
2023/01/03 04:38:29;;;;;;;10.20;4.35;;;3.20;99.90;;;;;;5020017;28;20041;-77
2023/01/03 04:40:54;;;;;;;8.98;3.50;;;3.20;99.90;;;;;;5001368;28;20545;-76
2023/01/03 04:46:04;;;;;;;9.53;3.70;;;3.50;99.90;;;;;;5020590;28;20040;-76
2023/01/03 04:48:30;;;;;;;8.10;4.05;;;3.30;99.90;;;;;;5025016;28;20095;-76
2023/01/03 04:50:58;;;;;;;7.85;3.95;;;3.50;99.90;;;;;;5011961;28;20041;-77
2023/01/03 04:53:25;;;;;;;9.15;3.90;;;;;;;;;;5011993;28;20111;-77
2023/01/03 04:55:52;;;;;;;9.02;4.38;;;3.50;99.90;;;;;;5030756;28;20049;-77
2023/01/03 04:58:18;;;;;;;9.30;4.53;;;3.70;99.90;;;;;;5022522;28;20029;-77
2023/01/03 05:00:44;;;;;;;8.82;3.83;;;3.40;99.90;;;;;;5033361;28;20038;-77
2023/01/03 05:03:10;;;;;;;9.68;4.00;;;3.70;99.90;;;;;;4993224;28;20071;-77
2023/01/03 05:05:36;;;;;;;9.18;3.88;;;;;;;;;;5020412;28;20075;-77
2023/01/03 05:08:07;;;;;;;9.63;4.60;;;3.70;99.90;;;;;;5014743;28;20065;-77
2023/01/03 05:10:34;;;;;;;8.32;4.32;;;;;;;;;;5009999;28;20495;-77
2023/01/03 05:13:00;;;;;;;10.23;4.63;;;;;;;;;;4985824;28;20088;-76
2023/01/03 05:15:27;;;;;;;9.48;4.40;;;3.90;99.90;;;;;;4982224;28;20053;-76
2023/01/03 05:17:53;;;;;;;9.07;4.53;;;4.30;99.90;;;;;;5024592;28;20048;-77
2023/01/03 05:25:49;;;;;;;11.60;4.27;;;3.70;99.90;;;;;;5026869;28;20048;-77
2023/01/03 05:28:16;;;;;;;9.00;4.43;;;3.70;99.90;;;;;;5012024;28;20034;-77
2023/01/03 05:30:41;;;;;;;10.43;4.75;;;3.20;99.90;;;;;;5009519;28;20071;-77
2023/01/03 05:33:07;;;;;;;10.20;4.60;;;3.90;99.90;;;;;;5038994;28;20088;-77
2023/01/03 05:35:32;;;;;;;10.80;4.75;;;3.40;99.90;;;;;;5031284;28;20093;-77
2023/01/03 05:37:58;;;;;;;11.63;5.30;;;;;;;;;;5013583;28;20042;-77
2023/01/03 05:40:24;;;;;;;10.10;4.50;;;3.00;99.90;;;;;;5027786;28;20132;-77
2023/01/03 05:42:50;;;;;;;9.00;4.13;;;2.90;99.90;;;;;;5030108;28;20123;-77
2023/01/03 05:45:16;;;;;;;9.82;5.28;;;3.00;99.90;;;;;;5014983;28;20032;-76
2023/01/03 05:47:41;;;;;;;9.52;5.05;;;2.80;99.90;;;;;;5013968;28;20479;-77
2023/01/03 05:50:07;;;;;;;12.07;4.93;;;2.90;99.90;;;;;;4986417;28;20081;-77
2023/01/03 05:52:33;;;;;;;11.82;5.88;;;;;;;;;;4995244;28;20067;-77
2023/01/03 05:54:59;;;;;;;9.05;5.18;;;2.40;99.90;;;;;;5016240;28;20033;-77
2023/01/03 05:57:24;;;;;;;9.30;4.90;;;2.20;99.90;;;;;;5005172;28;20149;-77
2023/01/03 05:59:50;;;;;;;14.23;5.25;;;2.00;99.90;;;;;;4999035;28;20246;-77
2023/01/03 06:02:16;;;;;;;13.20;5.22;;;2.20;99.90;;;;;;5028833;28;20045;-76
2023/01/03 06:04:42;;;;;;;11.40;5.07;;;;;;;;;;5010876;28;20052;-76
2023/01/03 06:07:07;;;;;;;10.80;5.10;;;2.00;99.90;;;;;;5020290;28;20037;-77
2023/01/03 06:09:33;;;;;;;11.48;5.70;;;;;;;;;;5031087;28;20091;-76
2023/01/03 06:11:59;;;;;;;9.85;4.97;;;2.10;99.90;;;;;;5014788;28;20124;-77
2023/01/03 06:14:25;;;;;;;10.75;5.57;;;2.00;99.90;;;;;;5014935;28;20635;-76
2023/01/03 06:19:35;;;;;;;13.00;6.90;;;2.00;99.90;;;;;;5033232;28;20045;-76
2023/01/03 06:22:00;;;;;;;10.65;5.70;;;2.00;99.90;;;;;;5026968;28;20071;-76
2023/01/03 06:24:26;;;;;;;10.27;5.72;;;2.00;99.90;;;;;;5034460;28;20033;-76
2023/01/03 06:26:52;;;;;;;12.60;6.68;;;;;;;;;;5026745;28;20107;-76
2023/01/03 06:29:17;;;;;;;14.55;6.43;;;2.10;99.90;;;;;;5030109;28;20116;-76
2023/01/03 06:31:43;;;;;;;12.57;6.45;;;2.10;99.90;;;;;;5017265;28;20187;-76
2023/01/03 06:34:09;;;;;;;16.02;7.32;;;1.90;99.90;;;;;;5028579;28;20700;-76
2023/01/03 06:36:36;;;;;;;18.75;8.00;;;;;;;;;;5031237;28;20695;-76
2023/01/03 06:39:02;;;;;;;18.95;8.07;;;;;;;;;;5031886;28;20052;-76
2023/01/03 06:41:28;;;;;;;16.17;7.88;;;;;;;;;;5013929;28;20045;-76
2023/01/03 06:43:54;;;;;;;16.73;7.95;;;;;;;;;;5024701;28;20111;-76
2023/01/03 06:54:37;;;;;;;27.92;14.18;;;2.50;99.90;;;;;;5016505;28;20041;-76
2023/01/03 06:57:04;;;;;;;33.22;15.73;;;2.40;99.90;;;;;;5010804;28;20034;-76
2023/01/03 06:59:30;;;;;;;30.83;14.77;;;;;;;;;;5008393;28;20236;-76
2023/01/03 07:01:55;;;;;;;31.70;15.45;;;2.50;99.90;;;;;;5016861;28;20065;-76
2023/01/03 07:04:22;;;;;;;35.15;16.63;;;;;;;;;;5017545;28;20539;-76
2023/01/03 07:06:48;;;;;;;36.80;17.70;;;2.30;99.90;;;;;;5013009;28;20041;-76
2023/01/03 07:09:14;;;;;;;32.47;16.27;;;2.40;99.90;;;;;;5010641;28;20517;-77
2023/01/03 07:11:40;;;;;;;32.83;17.70;;;;;;;;;;5009369;28;20033;-77
2023/01/03 07:14:07;;;;;;;39.70;18.27;;;;;;;;;;5017073;28;20072;-77
2023/01/03 07:16:35;;;;;;;33.13;18.27;;;;;;;;;;4992203;28;20108;-77
2023/01/03 07:19:01;;;;;;;34.35;16.92;;;;;;;;;;5014107;28;20056;-77
2023/01/03 07:21:29;;;;;;;34.05;17.17;;;2.70;99.90;;;;;;4986640;28;20045;-76
2023/01/03 07:23:55;;;;;;;33.80;18.52;;;;;;;;;;5010534;28;20064;-76
2023/01/03 07:26:23;;;;;;;32.00;17.77;;;2.30;99.90;;;;;;5005912;28;20044;-76
2023/01/03 07:28:49;;;;;;;33.08;18.70;;;;;;;;;;5015601;28;20095;-76
2023/01/03 07:31:15;;;;;;;34.92;18.08;;;2.30;99.90;;;;;;5017020;28;20037;-76
2023/01/03 07:33:40;;;;;;;35.20;18.05;;;2.30;99.90;;;;;;5016570;28;20528;-76
2023/01/03 07:36:08;;;;;;;35.15;18.10;;;2.30;99.90;;;;;;5015763;28;20038;-77
2023/01/03 07:38:35;;;;;;;34.85;18.08;;;2.10;99.90;;;;;;5004779;28;20121;-77
2023/01/03 07:41:02;;;;;;;38.25;19.38;;;;;;;;;;5016302;28;20053;-76
2023/01/03 07:43:36;;;;;;;35.88;18.60;;;1.90;99.90;;;;;;5031606;28;20048;-77
2023/01/03 07:46:24;;;;;;;35.15;18.48;;;1.90;99.90;;;;;;5031963;28;20064;-77
2023/01/03 07:48:56;;;;;;;35.13;17.38;;;2.00;99.90;;;;;;5003430;28;20029;-77
2023/01/03 07:51:22;;;;;;;40.38;19.10;;;;;;;;;;5015393;28;20064;-77
2023/01/03 07:53:52;;;;;;;38.95;18.70;;;;;;;;;;5033625;28;20132;-77
2023/01/03 07:56:20;;;;;;;37.17;19.27;;;1.70;99.90;;;;;;4993401;28;20050;-76
2023/01/03 07:58:47;;;;;;;40.00;21.95;;;1.80;99.90;;;;;;5015041;28;20104;-77
2023/01/03 08:01:17;;;;;;;40.58;20.70;;;;;;;;;;5033822;28;20506;-76
2023/01/03 08:03:44;;;;;;;42.85;23.23;;;;;;;;;;5015655;28;20061;-77
2023/01/03 08:06:14;;;;;;;50.08;23.90;;;;;;;;;;4996237;28;20047;-77
2023/01/03 08:08:40;;;;;;;48.08;23.15;;;1.50;99.90;;;;;;5008512;28;20048;-76
2023/01/03 08:13:53;;;;;;;46.60;22.75;;;1.50;99.90;;;;;;5014075;28;20037;-73
2023/01/03 08:16:19;;;;;;;50.03;24.65;;;;;;;;;;5026938;28;20048;-77
2023/01/03 08:18:45;;;;;;;45.13;24.55;;;;;;;;;;5007918;28;20048;-77
2023/01/03 08:21:13;;;;;;;51.78;26.25;;;1.50;99.90;;;;;;5024668;28;20034;-76
2023/01/03 08:23:40;;;;;;;45.58;24.40;;;;;;;;;;4989977;28;20029;-76
2023/01/03 08:26:12;;;;;;;59.15;26.67;;;1.60;99.90;;;;;;5019406;28;20045;-71
2023/01/03 08:28:38;;;;;;;45.78;24.75;;;;;;;;;;5024649;28;20037;-70
2023/01/03 08:31:25;;;;;;;50.28;25.42;;;;;;;;;;5024450;28;20049;-71
2023/01/03 08:33:59;;;;;;;50.92;26.83;;;1.90;99.90;;;;;;5021896;28;20603;-72
2023/01/03 08:36:27;;;;;;;49.13;27.88;;;;;;;;;;5026880;28;20041;-70
2023/01/03 08:39:05;;;;;;;58.25;29.27;;;1.60;99.90;;;;;;5023730;28;20036;-70
2023/01/03 08:41:34;;;;;;;57.70;30.13;;;1.80;99.90;;;;;;5030491;28;20041;-70
2023/01/03 08:44:01;;;;;;;63.53;31.05;;;2.00;99.90;;;;;;5012693;28;20037;-71
2023/01/03 08:46:28;;;;;;;70.82;33.85;;;;;;;;;;5007211;28;20125;-70
2023/01/03 08:48:54;;;;;;;74.82;35.78;;;;;;;;;;5026234;28;20459;-71
2023/01/03 08:51:20;;;;;;;70.15;35.00;;;2.00;99.90;;;;;;5008068;28;20119;-70
2023/01/03 08:53:45;;;;;;;85.00;37.38;;;2.00;99.90;;;;;;5012061;28;20640;-66
2023/01/03 08:56:11;;;;;;;92.43;35.60;;;2.10;99.90;;;;;;5024499;28;20092;-67
2023/01/03 08:58:37;;;;;;;161.50;43.67;;;2.20;99.90;;;;;;5020701;28;20033;-66
2023/01/03 09:01:04;;;;;;;177.95;42.63;;;;;;;;;;5029593;28;20049;-67
2023/01/03 09:03:30;;;;;;;208.32;47.13;;;2.10;99.90;;;;;;5029181;28;20045;-67
2023/01/03 09:06:00;;;;;;;159.05;40.67;;;;;;;;;;5029945;28;20029;-67
2023/01/03 09:08:28;;;;;;;108.40;34.30;;;2.00;99.90;;;;;;5028083;28;20037;-67
2023/01/03 09:10:54;;;;;;;121.90;36.92;;;2.00;99.90;;;;;;5024744;28;20045;-67
2023/01/03 09:13:20;;;;;;;110.28;32.90;;;;;;;;;;5022566;28;20045;-67
2023/01/03 09:15:45;;;;;;;158.02;37.63;;;2.20;99.90;;;;;;5028434;28;20072;-68
2023/01/03 09:18:11;;;;;;;91.88;26.85;;;2.10;99.90;;;;;;5027079;28;20037;-67
2023/01/03 09:20:37;;;;;;;128.85;33.35;;;2.50;99.90;;;;;;5021473;28;20044;-67
2023/01/03 09:23:03;;;;;;;110.90;29.90;;;;;;;;;;5021976;28;20029;-67
2023/01/03 09:25:29;;;;;;;124.53;32.88;;;;;;;;;;5029051;28;20041;-67
2023/01/03 09:27:55;;;;;;;107.97;32.10;;;;;;;;;;5012387;28;20403;-67
2023/01/03 09:30:22;;;;;;;77.55;27.90;;;;;;;;;;5001060;28;20042;-68
2023/01/03 09:32:51;;;;;;;129.25;38.00;;;;;;;;;;5023720;28;20045;-67
2023/01/03 09:35:17;;;;;;;103.00;32.08;;;;;;;;;;5022216;28;20096;-67
2023/01/03 09:37:46;;;;;;;83.57;27.20;;;;;;;;;;5026453;28;20442;-67
2023/01/03 09:40:12;;;;;;;72.30;29.15;;;;;;;;;;5020403;28;20353;-67
2023/01/03 09:45:44;;;;;;;106.88;31.30;;;;;;;;;;4985642;28;20049;-67
2023/01/03 09:48:14;;;;;;;100.38;28.77;;;;;;;;;;4970292;28;20558;-67
2023/01/03 09:50:42;;;;;;;58.78;22.50;;;2.90;99.90;;;;;;5004785;28;20269;-67
2023/01/03 10:05:21;;;;;;;57.95;21.90;;;;;;;;;;5005407;28;20068;-67
2023/01/03 10:08:16;;;;;;;82.22;26.75;;;3.00;99.90;;;;;;5025560;28;20033;-67
2023/01/03 10:10:54;;;;;;;76.18;27.30;;;3.20;99.90;;;;;;4953033;28;20204;-67
2023/01/03 10:13:47;;;;;;;90.85;30.70;;;2.70;99.90;;;;;;5001593;28;20050;-68
2023/01/03 10:16:50;;;;;;;92.22;36.92;;;3.40;99.90;;;;;;5004562;28;20132;-67
2023/01/03 10:19:37;;;;;;;85.53;32.28;;;;;;;;;;5026394;28;20042;-67
2023/01/03 10:22:13;;;;;;;88.80;33.75;;;;;;;;;;5027804;28;20046;-67
2023/01/03 10:24:46;;;;;;;80.88;29.95;;;;;;;;;;5029228;28;20503;-67
2023/01/03 10:27:21;;;;;;;78.93;29.77;;;3.50;99.90;;;;;;5028490;28;20033;-67
2023/01/03 10:29:48;;;;;;;;;;;3.40;99.90;;;;;;5026469;28;20486;-67
2023/01/03 10:32:32;;;;;;;80.13;32.58;;;;;;;;;;5022822;28;19918;-67
2023/01/03 10:35:14;;;;;;;84.68;33.65;;;4.30;99.90;;;;;;5024747;28;20042;-68
2023/01/03 10:37:40;;;;;;;95.53;37.03;;;4.20;99.90;;;;;;5024287;28;20072;-66
2023/01/03 10:40:06;;;;;;;110.25;38.45;;;4.20;99.90;;;;;;5028283;28;20075;-67
2023/01/03 10:42:34;;;;;;;66.13;29.40;;;;;;;;;;5023785;28;20030;-66
2023/01/03 10:45:05;;;;;;;72.15;32.78;;;4.50;99.90;;;;;;5026928;28;20503;-67
2023/01/03 10:47:31;;;;;;;74.57;33.33;;;;;;;;;;5027742;28;20076;-67
2023/01/03 10:49:59;;;;;;;101.60;38.95;;;4.40;99.90;;;;;;5026499;28;20076;-66
2023/01/03 10:52:29;;;;;;;92.47;34.42;;;4.90;99.90;;;;;;5010938;28;20125;-67
2023/01/03 10:55:00;;;;;;;69.47;30.30;;;4.70;99.90;;;;;;5029072;28;20448;-67
2023/01/03 10:57:44;;;;;;;72.10;32.60;;;4.90;99.90;;;;;;5030257;28;20488;-67
2023/01/03 11:00:21;;;;;;;77.57;34.05;;;;;;;;;;5029644;28;20052;-67
2023/01/03 11:02:48;;;;;;;76.22;32.72;;;4.80;99.90;;;;;;5031834;28;20121;-67
2023/01/03 11:05:20;;;;;;;91.63;40.15;;;4.70;99.90;;;;;;5028056;28;20087;-66
2023/01/03 11:07:54;;;;;;;88.85;41.22;;;5.50;99.90;;;;;;5010256;28;20053;-67
2023/01/03 11:10:20;;;;;;;103.07;45.17;;;5.30;99.90;;;;;;5028003;28;20045;-67
2023/01/03 11:12:46;;;;;;;86.90;44.90;;;5.30;99.90;;;;;;5024440;28;20033;-67
2023/01/03 11:15:32;;;;;;;81.35;36.58;;;5.20;99.90;;;;;;5030974;28;20084;-67
2023/01/03 11:18:03;;;;;;;79.28;36.45;;;5.30;99.90;;;;;;5022803;28;20638;-67
2023/01/03 11:20:41;;;;;;;96.13;48.92;;;5.00;99.90;;;;;;5024919;28;20455;-67
2023/01/03 11:23:17;;;;;;;70.90;33.80;;;5.00;99.90;;;;;;5012950;28;20116;-67
2023/01/03 11:26:16;;;;;;;68.97;33.58;;;5.60;99.90;;;;;;5028906;28;20526;-66
2023/01/03 11:29:00;;;;;;;81.13;35.35;;;5.90;99.90;;;;;;5026863;28;20045;-67
2023/01/03 11:31:32;;;;;;;64.13;31.90;;;5.60;99.90;;;;;;5027449;28;20458;-67
2023/01/03 11:34:03;;;;;;;77.93;47.03;;;5.60;99.90;;;;;;5027774;28;20068;-67
2023/01/03 11:36:52;;;;;;;70.70;33.80;;;5.70;99.90;;;;;;5025924;28;20399;-67
2023/01/03 11:39:42;;;;;;;191.93;170.43;;;5.80;99.90;;;;;;5025536;28;20048;-68
2023/01/03 11:42:28;;;;;;;61.40;33.55;;;5.70;99.90;;;;;;5027625;28;20040;-67
2023/01/03 11:45:31;;;;;;;59.95;30.52;;;5.90;99.90;;;;;;5022774;28;20038;-68
2023/01/03 11:48:34;;;;;;;53.75;28.42;;;5.90;99.90;;;;;;5005798;28;20042;-67
2023/01/03 11:51:10;;;;;;;58.35;32.05;;;;;;;;;;5030759;28;20037;-67
2023/01/03 11:53:51;;;;;;;63.45;32.55;;;6.10;99.90;;;;;;5031697;28;20037;-67
2023/01/03 11:56:36;;;;;;;61.75;31.13;;;5.80;99.90;;;;;;5029119;28;20499;-67
2023/01/03 11:59:13;;;;;;;57.55;30.55;;;5.90;99.90;;;;;;5016323;28;20076;-68
2023/01/03 12:02:10;;;;;;;59.70;32.00;;;6.20;99.90;;;;;;5023088;28;20120;-67
2023/01/03 12:05:15;;;;;;;58.80;31.70;;;5.90;99.90;;;;;;5021082;28;20111;-67
2023/01/03 12:07:52;;;;;;;53.93;30.40;;;6.20;99.90;;;;;;5026283;28;20033;-67
2023/01/03 12:10:22;;;;;;;56.85;31.15;;;6.00;99.90;;;;;;5012445;28;20516;-67
2023/01/03 12:13:12;;;;;;;56.70;30.17;;;6.00;99.90;;;;;;5022415;28;20128;-67
2023/01/03 12:16:18;;;;;;;60.58;36.83;;;6.10;99.90;;;;;;5029956;28;20406;-67
2023/01/03 12:18:59;;;;;;;53.90;29.00;;;6.10;99.90;;;;;;5017300;28;20081;-67
2023/01/03 12:21:37;;;;;;;55.15;32.20;;;6.10;99.90;;;;;;5024567;28;20412;-68
2023/01/03 12:24:21;;;;;;;47.67;29.50;;;6.30;99.90;;;;;;5026584;28;20037;-67
2023/01/03 12:26:56;;;;;;;49.90;29.10;;;6.10;99.90;;;;;;5019758;28;20037;-67
2023/01/03 12:29:42;;;;;;;48.08;28.38;;;5.80;99.90;;;;;;5019995;28;20087;-67
2023/01/03 12:32:15;;;;;;;45.63;26.60;;;6.20;99.90;;;;;;5024622;28;20079;-67
2023/01/03 12:35:10;;;;;;;46.88;28.67;;;6.30;99.90;;;;;;5031076;28;20045;-67
2023/01/03 12:37:39;;;;;;;49.35;27.40;;;6.30;99.90;;;;;;5010010;28;20040;-66
2023/01/03 12:40:32;;;;;;;45.22;26.45;;;6.30;99.90;;;;;;5008658;28;20037;-66
2023/01/03 12:43:19;;;;;;;49.90;28.98;;;;;;;;;;5017337;28;20044;-66
2023/01/03 12:45:56;;;;;;;49.45;28.42;;;6.60;99.90;;;;;;5029678;28;20041;-67
2023/01/03 12:48:48;;;;;;;49.72;27.10;;;6.30;99.90;;;;;;5028780;28;20069;-66
2023/01/03 12:51:18;;;;;;;45.28;26.05;;;;;;;;;;5012157;28;20498;-66
2023/01/03 12:54:14;;;;;;;42.85;24.38;;;6.50;99.90;;;;;;5021535;28;20041;-66
2023/01/03 12:56:58;;;;;;;48.05;26.23;;;;;;;;;;5028549;28;20087;-66
2023/01/03 12:59:27;;;;;;;52.23;36.20;;;6.20;99.90;;;;;;5024644;28;20442;-66
2023/01/03 13:02:14;;;;;;;48.03;25.23;;;6.50;99.90;;;;;;5020756;28;20647;-66
2023/01/03 13:04:43;;;;;;;40.45;24.05;;;6.60;99.90;;;;;;5026088;28;20077;-67
2023/01/03 13:07:14;;;;;;;43.30;24.13;;;;;;;;;;5027271;28;20042;-65
2023/01/03 13:09:48;;;;;;;41.25;23.33;;;6.70;99.90;;;;;;5023013;28;20037;-68
2023/01/03 13:12:23;;;;;;;41.22;23.50;;;;;;;;;;5022491;28;20469;-66
2023/01/03 13:14:53;;;;;;;;;;;6.50;99.90;;;;;;5026095;28;20056;-66
2023/01/03 13:17:25;;;;;;;37.80;21.55;;;6.40;99.90;;;;;;5006437;28;20386;-66
2023/01/03 13:20:25;;;;;;;38.22;22.23;;;6.80;99.90;;;;;;5029521;28;20099;-66
2023/01/03 13:22:53;;;;;;;40.22;23.92;;;7.30;99.90;;;;;;5021878;28;20140;-66
2023/01/03 13:25:40;;;;;;;45.08;23.02;;;6.30;99.90;;;;;;5030185;28;20088;-66
2023/01/03 13:28:20;;;;;;;42.03;22.63;;;6.50;99.90;;;;;;5008093;28;20383;-67
2023/01/03 13:30:46;;;;;;;42.25;23.17;;;7.00;99.90;;;;;;5027037;28;20044;-67
2023/01/03 13:33:14;;;;;;;40.67;23.10;;;7.00;99.90;;;;;;5004756;28;20167;-67
2023/01/03 13:35:42;;;;;;;45.05;22.15;;;6.60;99.90;;;;;;5027814;28;20052;-67
2023/01/03 13:38:30;;;;;;;46.03;23.77;;;7.00;99.90;;;;;;5027983;28;20037;-66
2023/01/03 13:40:59;;;;;;;44.92;25.08;;;7.30;99.90;;;;;;5014707;28;20522;-67
2023/01/03 13:43:34;;;;;;;47.53;24.75;;;7.10;99.90;;;;;;5016746;28;20410;-67
2023/01/03 13:46:18;;;;;;;;;;;7.10;99.90;;;;;;5011085;28;20037;-66
2023/01/03 13:48:57;;;;;;;45.28;23.67;;;7.00;99.90;;;;;;5019307;28;19924;-67
2023/01/03 13:51:38;;;;;;;45.88;21.45;;;7.20;99.90;;;;;;5010689;28;20116;-66
2023/01/03 13:54:23;;;;;;;49.97;25.63;;;6.60;99.90;;;;;;5022505;28;20044;-66
2023/01/03 13:56:48;;;;;;;45.83;24.10;;;7.20;99.90;;;;;;5027548;28;20116;-66
2023/01/03 13:59:14;;;;;;;43.85;22.75;;;7.20;99.90;;;;;;5023159;28;20120;-66
2023/01/03 14:01:52;;;;;;;48.67;23.88;;;6.90;99.90;;;;;;4997440;28;20046;-67
2023/01/03 14:04:45;;;;;;;45.35;22.65;;;7.20;99.90;;;;;;5021597;28;20070;-67
2023/01/03 14:07:29;;;;;;;45.75;22.40;;;7.30;99.90;;;;;;5026648;28;20117;-67
2023/01/03 14:10:20;;;;;;;47.07;22.77;;;7.40;99.90;;;;;;5028392;28;20388;-66
2023/01/03 14:13:00;;;;;;;39.05;21.55;;;7.00;99.90;;;;;;5021582;28;20053;-67
2023/01/03 14:15:30;;;;;;;45.63;21.65;;;7.70;99.90;;;;;;4995506;28;20046;-66
2023/01/03 14:18:01;;;;;;;36.70;22.30;;;7.80;99.90;;;;;;5021949;28;20033;-67
2023/01/03 14:20:33;;;;;;;35.70;21.17;;;7.70;99.90;;;;;;5022668;28;20037;-67
2023/01/03 14:23:04;;;;;;;37.35;20.42;;;7.50;99.90;;;;;;5022281;28;20044;-68
2023/01/03 14:25:38;;;;;;;32.53;18.48;;;7.60;99.90;;;;;;5019508;28;20438;-68
2023/01/03 14:28:22;;;;;;;34.85;18.38;;;7.50;99.90;;;;;;5022837;28;20048;-67
2023/01/03 14:30:54;;;;;;;31.55;18.98;;;7.70;99.90;;;;;;5010776;28;20045;-66
2023/01/03 14:33:23;;;;;;;36.80;18.60;;;7.50;99.90;;;;;;5028554;28;20052;-66
2023/01/03 14:36:00;;;;;;;34.38;20.40;;;7.70;99.90;;;;;;5025557;28;20034;-66
2023/01/03 14:38:34;;;;;;;34.13;18.70;;;7.80;99.90;;;;;;5025563;28;20034;-67
2023/01/03 14:41:02;;;;;;;34.60;20.08;;;7.90;99.90;;;;;;5018134;28;20045;-67